createdAt,value
2018-09-13T00:01:01.179Z,1.73
2018-09-13T00:03:30.152Z,1.77
2018-09-13T00:05:58.828Z,1.80
2018-09-13T00:08:27.533Z,1.90
2018-09-13T00:10:56.179Z,2.10
2018-09-13T00:13:24.916Z,2.20
2018-09-13T00:15:53.547Z,1.93
2018-09-13T00:18:22.229Z,2.10
2018-09-13T00:20:51.061Z,2.10
2018-09-13T00:23:19.731Z,1.67
2018-09-13T00:25:48.383Z,2.10
2018-09-13T00:28:17.030Z,2.00
2018-09-13T00:30:45.651Z,2.10
2018-09-13T00:33:14.316Z,1.60
2018-09-13T00:35:43.008Z,2.27
2018-09-13T00:38:11.685Z,2.10
2018-09-13T00:40:40.337Z,2.17
2018-09-13T00:43:09.043Z,2.00
2018-09-13T00:45:37.649Z,1.73
2018-09-13T00:48:06.333Z,2.00
2018-09-13T00:50:34.934Z,2.10
2018-09-13T00:53:03.568Z,2.27
2018-09-13T00:55:32.201Z,2.00
2018-09-13T00:58:00.871Z,2.60
2018-09-13T01:00:29.526Z,2.30
2018-09-13T01:02:58.168Z,1.90
2018-09-13T01:05:26.838Z,2.00
2018-09-13T01:07:55.474Z,2.07
2018-09-13T01:10:24.131Z,2.20
2018-09-13T01:12:52.798Z,2.27
2018-09-13T01:15:21.445Z,2.30
2018-09-13T01:17:50.357Z,2.13
2018-09-13T01:20:19.018Z,2.27
2018-09-13T01:22:47.690Z,2.63
2018-09-13T01:25:16.338Z,2.77
2018-09-13T01:27:45.022Z,2.60
2018-09-13T01:30:13.703Z,2.43
2018-09-13T01:32:42.358Z,2.73
2018-09-13T01:35:11.045Z,2.70
2018-09-13T01:37:39.673Z,2.73
2018-09-13T01:40:08.497Z,2.70
2018-09-13T01:42:37.125Z,2.80
2018-09-13T01:45:05.827Z,2.63
2018-09-13T01:47:34.520Z,2.83
2018-09-13T01:50:03.240Z,2.50
2018-09-13T01:52:31.848Z,2.43
2018-09-13T01:55:00.519Z,3.20
2018-09-13T01:57:29.125Z,2.73
2018-09-13T01:59:57.759Z,2.90
2018-09-13T02:02:26.392Z,2.50
2018-09-13T02:04:55.049Z,2.47
2018-09-13T02:07:23.699Z,2.90
2018-09-13T02:09:52.312Z,2.57
2018-09-13T02:12:20.932Z,2.87
2018-09-13T02:14:49.603Z,2.80
2018-09-13T02:17:18.197Z,2.70
2018-09-13T02:19:46.841Z,2.43
2018-09-13T02:22:15.450Z,3.27
2018-09-13T02:24:44.084Z,3.80
2018-09-13T02:27:12.776Z,3.07
2018-09-13T02:29:41.429Z,3.10
2018-09-13T02:32:10.081Z,3.17
2018-09-13T02:34:38.701Z,2.77
2018-09-13T02:37:07.386Z,3.47
2018-09-13T02:39:36.104Z,3.50
2018-09-13T02:42:04.794Z,4.00
2018-09-13T02:44:33.434Z,4.00
2018-09-13T02:47:02.166Z,3.80
2018-09-13T02:49:30.823Z,3.90
2018-09-13T02:51:59.444Z,3.90
2018-09-13T02:54:28.125Z,3.83
2018-09-13T02:56:56.772Z,3.97
2018-09-13T02:59:25.416Z,3.97
2018-09-13T03:01:54.602Z,4.03
2018-09-13T03:04:23.239Z,4.30
2018-09-13T03:06:51.884Z,4.13
2018-09-13T03:09:20.507Z,4.67
2018-09-13T03:11:49.158Z,3.80
2018-09-13T03:14:17.811Z,3.87
2018-09-13T03:16:46.447Z,4.30
2018-09-13T03:19:15.090Z,4.43
2018-09-13T03:21:43.739Z,4.33
2018-09-13T03:24:12.340Z,4.00
2018-09-13T03:26:41.020Z,4.80
2018-09-13T03:29:09.769Z,4.20
2018-09-13T03:31:38.414Z,4.30
2018-09-13T03:34:07.213Z,4.50
2018-09-13T03:36:35.853Z,4.50
2018-09-13T03:39:06.658Z,4.63
2018-09-13T03:41:35.347Z,4.30
2018-09-13T03:44:03.977Z,4.93
2018-09-13T03:46:32.610Z,4.43
2018-09-13T03:49:01.401Z,4.90
2018-09-13T03:51:30.056Z,4.90
2018-09-13T03:53:58.681Z,5.17
2018-09-13T03:56:27.548Z,5.23
2018-09-13T03:58:56.242Z,5.00
2018-09-13T04:01:26.950Z,5.57
2018-09-13T04:03:55.656Z,5.67
2018-09-13T04:06:24.389Z,6.10
2018-09-13T04:08:53.042Z,5.60
2018-09-13T04:11:21.693Z,6.87
2018-09-13T04:13:50.304Z,7.37
2018-09-13T04:16:18.998Z,7.30
2018-09-13T04:18:47.962Z,7.20
2018-09-13T04:21:16.653Z,8.17
2018-09-13T04:23:45.325Z,8.43
2018-09-13T04:26:13.952Z,9.13
2018-09-13T04:28:42.632Z,10.10
2018-09-13T04:31:11.264Z,11.10
2018-09-13T04:33:39.914Z,10.50
2018-09-13T04:36:08.621Z,11.80
2018-09-13T04:38:37.334Z,10.80
2018-09-13T04:41:05.931Z,10.20
2018-09-13T04:43:34.633Z,5.97
2018-09-13T04:46:03.302Z,4.63
2018-09-13T04:48:32.176Z,5.17
2018-09-13T04:51:00.896Z,4.60
2018-09-13T04:53:29.660Z,5.03
2018-09-13T04:55:58.345Z,4.73
2018-09-13T04:58:27.125Z,4.83
2018-09-13T05:00:55.769Z,7.03
2018-09-13T05:03:24.565Z,5.83
2018-09-13T05:05:53.179Z,5.17
2018-09-13T05:08:21.816Z,4.90
2018-09-13T05:10:50.451Z,6.13
2018-09-13T05:13:19.323Z,6.53
2018-09-13T05:15:48.029Z,6.60
2018-09-13T05:18:16.705Z,6.63
2018-09-13T05:20:45.021Z,6.10
2018-09-13T05:23:13.668Z,6.60
2018-09-13T05:25:42.318Z,6.37
2018-09-13T05:28:11.000Z,7.40
2018-09-13T05:30:39.632Z,8.27
2018-09-13T05:33:08.279Z,8.10
2018-09-13T05:35:36.922Z,7.57
2018-09-13T05:38:05.649Z,7.63
2018-09-13T05:40:34.571Z,7.60
2018-09-13T05:43:03.277Z,7.17
2018-09-13T05:45:32.002Z,6.50
2018-09-13T05:48:00.616Z,5.50
2018-09-13T05:50:29.267Z,6.00
2018-09-13T05:52:57.872Z,5.10
2018-09-13T05:55:26.928Z,4.90
2018-09-13T05:57:55.609Z,5.07
2018-09-13T06:00:24.180Z,5.10
2018-09-13T06:02:52.798Z,4.23
2018-09-13T06:05:21.437Z,4.83
2018-09-13T06:07:50.186Z,5.03
2018-09-13T06:10:20.060Z,5.07
2018-09-13T06:12:48.716Z,5.10
2018-09-13T06:15:17.361Z,4.63
2018-09-13T06:17:46.002Z,5.30
2018-09-13T06:20:14.748Z,5.30
2018-09-13T06:22:43.397Z,5.30
2018-09-13T06:25:12.047Z,5.03
2018-09-13T06:27:40.700Z,5.03
2018-09-13T06:30:09.369Z,5.00
2018-09-13T06:32:38.014Z,5.27
2018-09-13T06:35:07.072Z,4.90
2018-09-13T06:37:35.753Z,4.90
2018-09-13T06:40:04.534Z,4.57
2018-09-13T06:42:33.248Z,5.10
2018-09-13T06:45:01.821Z,5.13
2018-09-13T06:47:30.433Z,4.90
2018-09-13T06:49:59.090Z,5.07
2018-09-13T06:52:27.781Z,4.73
2018-09-13T06:54:56.512Z,4.23
2018-09-13T06:57:25.666Z,4.57
2018-09-13T06:59:54.349Z,4.33
2018-09-13T07:02:23.055Z,4.07
2018-09-13T07:04:51.714Z,4.10
2018-09-13T07:07:20.423Z,3.90
2018-09-13T07:09:49.107Z,4.30
2018-09-13T07:12:17.791Z,4.47
2018-09-13T07:14:46.452Z,4.63
2018-09-13T07:17:15.099Z,4.50
2018-09-13T07:19:43.784Z,4.43
2018-09-13T07:22:12.427Z,4.90
2018-09-13T07:24:41.111Z,4.43
2018-09-13T07:27:09.772Z,4.53
2018-09-13T07:29:38.410Z,4.77
2018-09-13T07:32:07.074Z,5.17
2018-09-13T07:34:35.722Z,5.80
2018-09-13T07:37:04.425Z,5.90
2018-09-13T07:39:33.202Z,5.97
2018-09-13T07:42:01.894Z,6.23
2018-09-13T07:44:30.553Z,5.63
2018-09-13T07:46:59.229Z,5.03
2018-09-13T07:49:27.984Z,5.70
2018-09-13T07:51:56.693Z,5.50
2018-09-13T07:54:25.389Z,5.27
2018-09-13T07:56:54.024Z,6.23
2018-09-13T07:59:22.665Z,5.40
2018-09-13T08:01:51.370Z,5.73
2018-09-13T08:04:20.002Z,5.37
2018-09-13T08:06:48.696Z,6.03
2018-09-13T08:09:17.391Z,5.70
2018-09-13T08:11:46.086Z,6.67
2018-09-13T08:14:14.715Z,6.23
2018-09-13T08:16:43.412Z,6.87
2018-09-13T08:19:12.388Z,6.40
2018-09-13T08:21:41.128Z,7.30
2018-09-13T08:24:09.776Z,7.50
2018-09-13T08:26:38.395Z,6.77
2018-09-13T08:29:07.075Z,7.63
2018-09-13T08:31:35.701Z,7.43
2018-09-13T08:34:04.445Z,7.73
2018-09-13T08:36:33.187Z,7.40
2018-09-13T08:39:01.867Z,8.53
2018-09-13T08:41:30.605Z,7.40
2018-09-13T08:43:59.246Z,6.57
2018-09-13T08:46:27.865Z,6.70
2018-09-13T08:48:56.470Z,7.07
2018-09-13T08:51:25.145Z,7.40
2018-09-13T08:53:53.849Z,8.08
2018-09-13T08:56:22.516Z,7.17
2018-09-13T08:58:51.153Z,8.20
2018-09-13T09:01:19.811Z,8.67
2018-09-13T09:03:48.474Z,8.40
2018-09-13T09:06:17.223Z,8.70
2018-09-13T09:08:45.886Z,7.80
2018-09-13T09:11:14.530Z,6.37
2018-09-13T09:13:43.250Z,5.30
2018-09-13T09:16:11.949Z,5.00
2018-09-13T09:18:40.769Z,4.10
2018-09-13T09:21:09.302Z,4.10
2018-09-13T09:23:37.986Z,5.03
2018-09-13T09:26:06.759Z,7.50
2018-09-13T09:28:35.415Z,9.33
2018-09-13T09:31:04.045Z,10.05
2018-09-13T09:33:32.775Z,10.35
2018-09-13T09:36:01.408Z,10.05
2018-09-13T09:38:30.089Z,9.08
2018-09-13T09:40:58.725Z,10.63
2018-09-13T09:43:27.404Z,10.93
2018-09-13T09:45:56.044Z,10.63
2018-09-13T09:48:24.676Z,9.90
2018-09-13T09:50:53.367Z,8.48
2018-09-13T09:53:21.998Z,10.30
2018-09-13T09:55:50.648Z,8.48
2018-09-13T09:58:19.251Z,8.20
2018-09-13T10:02:57.582Z,7.20
2018-09-13T10:05:26.319Z,7.28
2018-09-13T10:07:54.969Z,7.67
2018-09-13T10:10:23.642Z,5.10
2018-09-13T10:12:52.251Z,6.40
2018-09-13T10:15:26.275Z,3.30
2018-09-13T10:18:00.191Z,3.05
2018-09-13T10:20:34.104Z,2.92
2018-09-13T10:23:07.953Z,3.10
2018-09-13T10:25:41.954Z,2.98
2018-09-13T10:28:15.867Z,2.80
2018-09-13T10:30:49.645Z,3.15
2018-09-13T10:33:23.413Z,3.25
2018-09-13T10:35:57.281Z,3.27
2018-09-13T10:38:31.285Z,3.20
2018-09-13T10:41:05.269Z,2.90
2018-09-13T10:43:39.346Z,3.50
2018-09-13T10:46:13.138Z,3.30
2018-09-13T10:48:46.902Z,3.85
2018-09-13T10:51:21.405Z,3.77
2018-09-13T10:53:54.262Z,3.30
2018-09-13T10:56:22.866Z,3.87
2018-09-13T10:58:51.509Z,4.33
2018-09-13T11:01:20.117Z,4.60
2018-09-13T11:03:48.795Z,4.12
2018-09-13T11:06:17.486Z,4.20
2018-09-13T11:08:46.229Z,5.17
2018-09-13T11:11:14.976Z,4.42
2018-09-13T11:15:55.496Z,4.30
2018-09-13T11:18:24.160Z,6.33
2018-09-13T11:20:52.878Z,5.85
2018-09-13T11:23:21.579Z,5.00
2018-09-13T11:25:50.316Z,6.03
2018-09-13T11:28:18.989Z,5.17
2018-09-13T11:30:51.809Z,4.28
2018-09-13T11:33:20.440Z,4.70
2018-09-13T11:35:49.074Z,6.47
2018-09-13T11:38:17.729Z,5.90
2018-09-13T11:40:46.525Z,6.83
2018-09-13T11:43:15.022Z,6.35
2018-09-13T11:45:43.696Z,5.47
2018-09-13T11:48:12.315Z,5.65
2018-09-13T11:50:41.483Z,5.08
2018-09-13T11:53:10.363Z,4.80
2018-09-13T11:55:42.077Z,4.60
2018-09-13T11:58:11.932Z,4.28
2018-09-13T12:00:40.957Z,5.60
2018-09-13T12:03:09.605Z,4.08
2018-09-13T12:05:38.344Z,3.83
2018-09-13T12:08:07.152Z,4.08
2018-09-13T12:10:35.827Z,4.83
2018-09-13T12:13:04.518Z,5.60
2018-09-13T12:15:33.157Z,4.20
2018-09-13T12:18:01.878Z,4.05
2018-09-13T12:20:30.535Z,4.10
2018-09-13T12:22:59.187Z,3.50
2018-09-13T12:25:27.891Z,3.75
2018-09-13T12:27:56.556Z,3.58
2018-09-13T12:30:25.205Z,3.90
2018-09-13T12:32:53.831Z,3.37
2018-09-13T12:35:22.482Z,4.25
2018-09-13T12:37:51.155Z,3.80
2018-09-13T12:40:19.805Z,3.60
2018-09-13T12:42:48.484Z,3.87
2018-09-13T12:45:17.144Z,4.60
2018-09-13T12:47:45.796Z,3.90
2018-09-13T12:50:14.476Z,4.65
2018-09-13T12:52:43.174Z,3.90
2018-09-13T12:55:11.802Z,3.60
2018-09-13T12:57:40.473Z,3.70
2018-09-13T13:00:09.185Z,3.87
2018-09-13T13:02:37.883Z,3.40
2018-09-13T13:05:06.587Z,4.22
2018-09-13T13:07:35.345Z,4.22
2018-09-13T13:10:04.016Z,4.33
2018-09-13T13:12:32.693Z,4.30
2018-09-13T13:15:01.502Z,3.70
2018-09-13T13:17:30.194Z,3.47
2018-09-13T13:19:59.122Z,4.00
2018-09-13T13:22:27.780Z,3.65
2018-09-13T13:24:56.438Z,4.58
2018-09-13T13:27:25.064Z,3.92
2018-09-13T13:29:53.689Z,3.60
2018-09-13T13:32:22.354Z,3.87
2018-09-13T13:34:51.825Z,3.95
2018-09-13T13:37:20.495Z,4.05
2018-09-13T13:39:49.128Z,3.27
2018-09-13T13:42:17.846Z,3.30
2018-09-13T13:44:46.500Z,3.50
2018-09-13T13:47:15.154Z,3.80
2018-09-13T13:49:43.846Z,3.65
2018-09-13T13:52:12.540Z,3.92
2018-09-13T13:54:41.159Z,3.50
2018-09-13T13:57:09.844Z,3.83
2018-09-13T13:59:53.091Z,3.50
2018-09-13T14:02:21.785Z,3.40
2018-09-13T14:04:50.409Z,3.02
2018-09-13T14:07:19.095Z,3.40
2018-09-13T14:09:48.130Z,3.10
2018-09-13T14:12:16.689Z,3.37
2018-09-13T14:14:45.886Z,3.20
2018-09-13T14:17:14.564Z,3.77
2018-09-13T14:19:43.489Z,3.25
2018-09-13T14:22:12.184Z,3.77
2018-09-13T14:24:40.794Z,3.70
2018-09-13T14:27:09.501Z,3.52
2018-09-13T14:29:38.193Z,3.70
2018-09-13T14:32:06.890Z,3.27
2018-09-13T14:34:35.493Z,4.45
2018-09-13T14:37:04.187Z,4.40
2018-09-13T14:39:32.862Z,4.85
2018-09-13T14:42:01.590Z,4.20
2018-09-13T14:44:30.263Z,4.17
2018-09-13T14:46:58.963Z,3.92
2018-09-13T14:49:27.609Z,3.85
2018-09-13T14:51:56.261Z,3.67
2018-09-13T14:54:24.988Z,4.55
2018-09-13T14:56:53.606Z,4.17
2018-09-13T14:59:22.300Z,4.03
2018-09-13T15:01:50.950Z,4.03
2018-09-13T15:04:19.594Z,3.85
2018-09-13T15:06:48.345Z,3.87
2018-09-13T15:09:16.958Z,3.90
2018-09-13T15:11:45.645Z,3.62
2018-09-13T15:14:14.274Z,3.90
2018-09-13T15:16:42.936Z,3.67
2018-09-13T15:19:11.538Z,4.10
2018-09-13T15:21:40.231Z,3.95
2018-09-13T15:24:09.094Z,3.75
2018-09-13T15:26:37.736Z,4.05
2018-09-13T15:29:06.512Z,3.75
2018-09-13T15:31:35.192Z,3.75
2018-09-13T15:34:03.882Z,3.87
2018-09-13T15:36:32.572Z,3.60
2018-09-13T15:39:01.270Z,3.52
2018-09-13T15:41:30.256Z,3.15
2018-09-13T15:43:58.627Z,2.80
2018-09-13T15:46:27.324Z,3.60
2018-09-13T15:48:56.051Z,3.70
2018-09-13T15:51:24.737Z,3.70
2018-09-13T15:53:53.416Z,3.20
2018-09-13T15:56:22.081Z,3.27
2018-09-13T15:58:50.814Z,3.25
2018-09-13T16:01:19.470Z,3.55
2018-09-13T16:03:48.118Z,3.02
2018-09-13T16:06:16.788Z,3.37
2018-09-13T16:08:45.539Z,3.00
2018-09-13T16:11:14.176Z,3.30
2018-09-13T16:13:42.864Z,3.90
2018-09-13T16:16:11.496Z,2.87
2018-09-13T16:18:40.160Z,4.35
2018-09-13T16:21:09.058Z,3.45
2018-09-13T16:23:37.719Z,3.40
2018-09-13T16:26:06.494Z,3.20
2018-09-13T16:28:35.043Z,3.20
2018-09-13T16:31:03.776Z,3.42
2018-09-13T16:33:32.444Z,3.15
2018-09-13T16:36:01.577Z,3.37
2018-09-13T16:38:35.532Z,3.98
2018-09-13T16:41:09.527Z,3.20
2018-09-13T16:43:43.409Z,3.08
2018-09-13T16:46:18.266Z,3.00
2018-09-13T16:48:46.913Z,3.20
2018-09-13T16:51:15.533Z,3.20
2018-09-13T16:53:44.192Z,3.20
2018-09-13T16:56:12.833Z,2.70
2018-09-13T16:58:41.520Z,3.45
2018-09-13T17:01:10.195Z,3.15
2018-09-13T17:03:38.920Z,3.30
2018-09-13T17:06:07.609Z,3.25
2018-09-13T17:08:36.321Z,2.92
2018-09-13T17:11:05.058Z,3.08
2018-09-13T17:13:33.729Z,3.00
2018-09-13T17:16:02.422Z,3.70
2018-09-13T17:18:31.098Z,3.47
2018-09-13T17:20:59.798Z,3.33
2018-09-13T17:23:28.495Z,3.52
2018-09-13T17:25:57.168Z,3.45
2018-09-13T17:28:25.866Z,3.45
2018-09-13T17:30:54.480Z,4.53
2018-09-13T17:33:23.137Z,4.25
2018-09-13T17:35:51.813Z,3.55
2018-09-13T17:38:20.472Z,3.60
2018-09-13T17:40:49.137Z,3.90
2018-09-13T17:43:17.776Z,8.55
2018-09-13T17:45:46.469Z,8.70
2018-09-13T17:48:15.107Z,4.90
2018-09-13T17:50:43.743Z,4.43
2018-09-13T17:53:12.391Z,4.50
2018-09-13T17:55:41.105Z,4.17
2018-09-13T17:58:09.754Z,4.40
2018-09-13T18:00:38.439Z,4.85
2018-09-13T18:03:07.116Z,4.00
2018-09-13T18:05:35.844Z,4.63
2018-09-13T18:08:04.521Z,4.60
2018-09-13T18:10:33.248Z,4.80
2018-09-13T18:13:02.146Z,4.63
2018-09-13T18:15:30.833Z,4.20
2018-09-13T18:17:59.527Z,4.40
2018-09-13T18:20:28.295Z,4.10
2018-09-13T18:22:56.982Z,4.60
2018-09-13T18:25:25.666Z,5.07
2018-09-13T18:27:54.309Z,4.43
2018-09-13T18:30:23.037Z,5.00
2018-09-13T18:32:51.715Z,5.83
2018-09-13T18:35:20.403Z,5.33
2018-09-13T18:37:49.083Z,5.23
2018-09-13T18:40:17.789Z,5.87
2018-09-13T18:42:46.429Z,6.90
2018-09-13T18:45:15.160Z,7.27
2018-09-13T18:47:43.960Z,8.00
2018-09-13T18:50:12.699Z,10.30
2018-09-13T18:52:41.536Z,9.63
2018-09-13T18:55:10.187Z,9.77
2018-09-13T18:57:38.821Z,8.50
2018-09-13T19:00:07.648Z,7.50
2018-09-13T19:02:36.375Z,8.60
2018-09-13T19:05:05.349Z,7.57
2018-09-13T19:07:34.059Z,10.03
2018-09-13T19:10:02.902Z,10.30
2018-09-13T19:12:31.655Z,12.70
2018-09-13T19:15:00.371Z,12.83
2018-09-13T19:17:28.687Z,14.20
2018-09-13T19:19:57.489Z,10.80
2018-09-13T19:22:26.171Z,8.53
2018-09-13T19:24:54.938Z,7.67
2018-09-13T19:27:23.614Z,7.23
2018-09-13T19:29:52.272Z,7.90
2018-09-13T19:32:20.998Z,9.40
2018-09-13T19:34:49.698Z,13.27
2018-09-13T19:37:18.465Z,16.97
2018-09-13T19:39:47.250Z,11.37
2018-09-13T19:42:16.924Z,8.43
2018-09-13T19:44:45.648Z,5.93
2018-09-13T19:47:14.438Z,5.73
2018-09-13T19:49:43.166Z,5.33
2018-09-13T19:52:11.810Z,5.73
2018-09-13T19:54:40.485Z,5.50
2018-09-13T19:57:09.234Z,5.43
2018-09-13T19:59:37.907Z,5.10
2018-09-13T20:02:06.679Z,5.30
2018-09-13T20:04:35.374Z,4.77
2018-09-13T20:07:04.283Z,4.87
2018-09-13T20:09:32.963Z,4.90
2018-09-13T20:12:01.688Z,4.60
2018-09-13T20:14:30.360Z,5.73
2018-09-13T20:16:58.981Z,5.00
2018-09-13T20:19:27.653Z,4.87
2018-09-13T20:21:56.311Z,5.10
2018-09-13T20:24:24.942Z,6.00
2018-09-13T20:26:53.562Z,5.63
2018-09-13T20:29:22.274Z,6.07
2018-09-13T20:31:50.936Z,7.00
2018-09-13T20:34:19.629Z,7.00
2018-09-13T20:36:49.165Z,7.07
2018-09-13T20:39:17.775Z,7.17
2018-09-13T20:41:46.437Z,7.30
2018-09-13T20:44:15.050Z,5.83
2018-09-13T20:46:43.727Z,5.53
2018-09-13T20:49:12.815Z,6.30
2018-09-13T20:51:41.529Z,6.50
2018-09-13T20:54:10.211Z,6.37
2018-09-13T20:56:38.909Z,5.67
2018-09-13T20:59:07.651Z,6.60
2018-09-13T21:01:36.344Z,6.80
2018-09-13T21:04:05.120Z,5.33
2018-09-13T21:06:33.793Z,4.93
2018-09-13T21:09:02.446Z,5.70
2018-09-13T21:11:31.105Z,5.77
2018-09-13T21:13:59.789Z,6.70
2018-09-13T21:16:28.426Z,6.53
2018-09-13T21:18:57.094Z,6.40
2018-09-13T21:21:25.760Z,6.03
2018-09-13T21:23:54.485Z,6.93
2018-09-13T21:26:23.094Z,7.70
2018-09-13T21:28:51.756Z,7.97
2018-09-13T21:31:20.432Z,8.27
2018-09-13T21:33:48.711Z,9.83
2018-09-13T21:36:17.396Z,9.63
2018-09-13T21:38:46.075Z,9.53
2018-09-13T21:41:14.683Z,9.53
2018-09-13T21:43:43.380Z,9.30
2018-09-13T21:46:12.049Z,9.10
2018-09-13T21:48:40.681Z,7.87
2018-09-13T21:51:09.348Z,6.43
2018-09-13T21:53:38.019Z,6.90
2018-09-13T21:56:06.756Z,8.37
2018-09-13T21:58:35.540Z,7.57
2018-09-13T22:01:04.569Z,6.20
2018-09-13T22:03:33.251Z,6.80
2018-09-13T22:06:01.897Z,8.60
2018-09-13T22:08:30.591Z,8.03
2018-09-13T22:10:59.251Z,7.10
2018-09-13T22:13:32.628Z,7.70
2018-09-13T22:16:02.454Z,7.90
2018-09-13T22:18:31.772Z,7.00
2018-09-13T22:21:00.462Z,7.30
2018-09-13T22:23:29.122Z,7.33
2018-09-13T22:25:57.778Z,7.40
2018-09-13T22:28:26.399Z,6.93
2018-09-13T22:30:55.079Z,6.90
2018-09-13T22:33:23.736Z,6.53
2018-09-13T22:35:52.384Z,7.03
2018-09-13T22:38:21.019Z,7.90
2018-09-13T22:40:49.279Z,9.50
2018-09-13T22:43:17.929Z,8.70
2018-09-13T22:45:46.589Z,9.47
2018-09-13T22:48:15.284Z,8.77
2018-09-13T22:50:43.987Z,9.23
2018-09-13T22:53:12.684Z,9.40
2018-09-13T22:55:41.345Z,9.73
2018-09-13T22:58:10.051Z,10.50
2018-09-13T23:00:38.725Z,9.80
2018-09-13T23:03:07.573Z,9.40
2018-09-13T23:05:36.236Z,8.73
2018-09-13T23:08:04.910Z,10.00
2018-09-13T23:10:33.545Z,10.47
2018-09-13T23:13:02.199Z,10.83
2018-09-13T23:15:30.869Z,10.90
2018-09-13T23:17:59.545Z,10.50
2018-09-13T23:20:28.266Z,10.60
2018-09-13T23:22:56.962Z,10.93
2018-09-13T23:25:25.598Z,10.60
2018-09-13T23:27:54.314Z,12.53
2018-09-13T23:30:23.019Z,11.50
2018-09-13T23:32:51.653Z,13.53
2018-09-13T23:35:20.325Z,14.23
2018-09-13T23:37:48.993Z,14.33
2018-09-13T23:40:17.744Z,15.27
2018-09-13T23:42:46.417Z,13.97
2018-09-13T23:45:15.204Z,14.83
2018-09-13T23:47:43.858Z,13.73
2018-09-13T23:50:12.565Z,15.70
2018-09-13T23:52:41.249Z,15.33
2018-09-13T23:55:09.941Z,14.73
2018-09-13T23:57:38.645Z,14.63
